sensor_id;sensor_type;location;lat;lon;timestamp;pressure;altitude;pressure_sealevel;temperature;humidity
53089;BME280;38968;47.696;17.540;2022-07-05T00:02:31;10020840.0;;;25.04;57.93164
53089;BME280;38968;47.696;17.540;2022-07-05T00:07:31;10019730.0;;;25.11;56.17383
53089;BME280;38968;47.696;17.540;2022-07-05T00:12:32;10017440.0;;;25.07;56.10938
53089;BME280;38968;47.696;17.540;2022-07-05T00:17:31;10020320.0;;;25.16;54.65039
53089;BME280;38968;47.696;17.540;2022-07-05T00:22:31;10020540.0;;;24.85;55.38379
53089;BME280;38968;47.696;17.540;2022-07-05T00:27:31;10020280.0;;;25.09;54.72559
53089;BME280;38968;47.696;17.540;2022-07-05T00:32:31;10020420.0;;;25.15;55.04004
53089;BME280;38968;47.696;17.540;2022-07-05T00:37:31;10022150.0;;;24.96;56.20313
53089;BME280;38968;47.696;17.540;2022-07-05T00:42:31;10022710.0;;;24.68;57.37598
53089;BME280;38968;47.696;17.540;2022-07-05T00:47:31;10023270.0;;;24.65;57.18262
53089;BME280;38968;47.696;17.540;2022-07-05T00:52:31;10023950.0;;;24.45;58.13965
53089;BME280;38968;47.696;17.540;2022-07-05T00:57:32;10024710.0;;;24.37;58.55469
53089;BME280;38968;47.696;17.540;2022-07-05T01:02:31;10024310.0;;;24.04;60.41504
53089;BME280;38968;47.696;17.540;2022-07-05T01:07:31;10025860.0;;;24.24;59.39063
53089;BME280;38968;47.696;17.540;2022-07-05T01:12:31;10025120.0;;;24.3;59.69238
53089;BME280;38968;47.696;17.540;2022-07-05T01:17:33;10025690.0;;;24.5;59.64844
53089;BME280;38968;47.696;17.540;2022-07-05T01:22:54;10024190.0;;;24.48;59.47949
53089;BME280;38968;47.696;17.540;2022-07-05T01:27:31;10023810.0;;;24.39;62.33008
53089;BME280;38968;47.696;17.540;2022-07-05T01:32:31;10023020.0;;;24.23;63.66602
53089;BME280;38968;47.696;17.540;2022-07-05T01:37:31;10022310.0;;;23.44;66.89941
53089;BME280;38968;47.696;17.540;2022-07-05T01:42:31;10021870.0;;;23.29;67.90137
53089;BME280;38968;47.696;17.540;2022-07-05T01:47:42;10021990.0;;;23.25;69.33105
53089;BME280;38968;47.696;17.540;2022-07-05T01:52:31;10022890.0;;;23.64;68.04785
53089;BME280;38968;47.696;17.540;2022-07-05T01:57:31;10023920.0;;;23.95;65.62012
53089;BME280;38968;47.696;17.540;2022-07-05T02:02:31;10025290.0;;;23.91;66.41504
53089;BME280;38968;47.696;17.540;2022-07-05T02:07:31;10027060.0;;;23.79;65.79688
53089;BME280;38968;47.696;17.540;2022-07-05T02:12:31;10025560.0;;;23.91;65.50684
53089;BME280;38968;47.696;17.540;2022-07-05T02:17:31;10024960.0;;;24.02;65.9707
53089;BME280;38968;47.696;17.540;2022-07-05T02:22:32;10026100.0;;;24.04;65.58594
53089;BME280;38968;47.696;17.540;2022-07-05T02:27:31;10026120.0;;;24.13;65.38574
53089;BME280;38968;47.696;17.540;2022-07-05T02:32:31;10028800.0;;;24.12;64.81836
53089;BME280;38968;47.696;17.540;2022-07-05T02:37:31;10028910.0;;;23.82;64.74023
53089;BME280;38968;47.696;17.540;2022-07-05T02:42:31;10030340.0;;;23.27;66.08594
53089;BME280;38968;47.696;17.540;2022-07-05T02:47:31;10028410.0;;;23.22;66.65625
53089;BME280;38968;47.696;17.540;2022-07-05T02:52:31;10028170.0;;;23.59;66.13281
53089;BME280;38968;47.696;17.540;2022-07-05T02:57:31;10027150.0;;;23.67;65.57813
53089;BME280;38968;47.696;17.540;2022-07-05T03:02:31;10026750.0;;;23.73;66.02246
53089;BME280;38968;47.696;17.540;2022-07-05T03:07:31;10028180.0;;;23.71;65.76172
53089;BME280;38968;47.696;17.540;2022-07-05T03:12:31;10027910.0;;;23.86;65.02832
53089;BME280;38968;47.696;17.540;2022-07-05T03:17:31;10031010.0;;;23.6;66.58105
53089;BME280;38968;47.696;17.540;2022-07-05T03:22:31;10033700.0;;;23.73;65.88086
53089;BME280;38968;47.696;17.540;2022-07-05T03:27:31;10035780.0;;;23.67;65.46191
53089;BME280;38968;47.696;17.540;2022-07-05T03:32:31;10039490.0;;;23.42;66.00098
53089;BME280;38968;47.696;17.540;2022-07-05T03:37:31;10038870.0;;;23.14;66.43262
53089;BME280;38968;47.696;17.540;2022-07-05T03:42:31;10038460.0;;;23.09;66.62305
53089;BME280;38968;47.696;17.540;2022-07-05T03:47:31;10038070.0;;;22.84;66.41113
53089;BME280;38968;47.696;17.540;2022-07-05T03:52:31;10037980.0;;;23;66.33984
53089;BME280;38968;47.696;17.540;2022-07-05T03:57:31;10041120.0;;;22.66;67.53516
53089;BME280;38968;47.696;17.540;2022-07-05T04:02:31;10041110.0;;;22.82;67.57129
53089;BME280;38968;47.696;17.540;2022-07-05T04:07:31;10040440.0;;;22.75;67.70117
53089;BME280;38968;47.696;17.540;2022-07-05T04:12:31;10038370.0;;;22.94;67.42578
53089;BME280;38968;47.696;17.540;2022-07-05T04:17:31;10037870.0;;;23.18;66.69531
53089;BME280;38968;47.696;17.540;2022-07-05T04:22:31;10037910.0;;;23.1;66.75586
53089;BME280;38968;47.696;17.540;2022-07-05T04:27:31;10038850.0;;;23.03;67.88574
53089;BME280;38968;47.696;17.540;2022-07-05T04:32:31;10037970.0;;;23.01;67.48242
53089;BME280;38968;47.696;17.540;2022-07-05T04:37:31;10038540.0;;;22.65;68.25098
53089;BME280;38968;47.696;17.540;2022-07-05T04:42:31;10039240.0;;;22.68;69.23047
53089;BME280;38968;47.696;17.540;2022-07-05T04:47:31;10039330.0;;;22.68;69.14941
53089;BME280;38968;47.696;17.540;2022-07-05T04:52:31;10041950.0;;;22.14;70.9541
53089;BME280;38968;47.696;17.540;2022-07-05T04:57:38;10041170.0;;;22.57;70.29492
53089;BME280;38968;47.696;17.540;2022-07-05T05:02:31;10042180.0;;;22.66;70.11914
53089;BME280;38968;47.696;17.540;2022-07-05T05:07:31;10041450.0;;;22.7;70.20801
53089;BME280;38968;47.696;17.540;2022-07-05T05:12:31;10040200.0;;;22.84;70.34961
53089;BME280;38968;47.696;17.540;2022-07-05T05:17:35;10040850.0;;;22.95;69.31836
53089;BME280;38968;47.696;17.540;2022-07-05T05:22:31;10038990.0;;;22.95;69.56543
53089;BME280;38968;47.696;17.540;2022-07-05T05:27:31;10037700.0;;;23.15;68.95117
53089;BME280;38968;47.696;17.540;2022-07-05T05:32:31;10038570.0;;;22.6;70.20508
53089;BME280;38968;47.696;17.540;2022-07-05T05:37:31;10037230.0;;;23.06;70.18262
53089;BME280;38968;47.696;17.540;2022-07-05T05:42:31;10037870.0;;;23.04;70.20215
53089;BME280;38968;47.696;17.540;2022-07-05T05:47:31;10037560.0;;;22.96;70.17773
53089;BME280;38968;47.696;17.540;2022-07-05T05:52:31;10036700.0;;;23.21;69.65234
53089;BME280;38968;47.696;17.540;2022-07-05T05:57:31;10038470.0;;;22.91;70.54785
53089;BME280;38968;47.696;17.540;2022-07-05T06:02:31;10037350.0;;;22.71;71.47754
53089;BME280;38968;47.696;17.540;2022-07-05T06:07:31;10036070.0;;;22.77;71.53418
53089;BME280;38968;47.696;17.540;2022-07-05T06:12:31;10035120.0;;;23.16;71.03223
53089;BME280;38968;47.696;17.540;2022-07-05T06:17:38;10034080.0;;;23.4;70.29395
53089;BME280;38968;47.696;17.540;2022-07-05T06:22:31;10035460.0;;;23.32;69.77734
53089;BME280;38968;47.696;17.540;2022-07-05T06:27:31;10035350.0;;;23.22;69.78516
53089;BME280;38968;47.696;17.540;2022-07-05T06:32:31;10035540.0;;;23.63;68.89551
53089;BME280;38968;47.696;17.540;2022-07-05T06:37:44;10036530.0;;;23.32;69.1416
53089;BME280;38968;47.696;17.540;2022-07-05T06:42:31;10035800.0;;;23.63;68.38867
53089;BME280;38968;47.696;17.540;2022-07-05T06:47:31;10036870.0;;;23.77;68.10254
53089;BME280;38968;47.696;17.540;2022-07-05T06:52:32;10037250.0;;;23.3;69.79785
53089;BME280;38968;47.696;17.540;2022-07-05T06:57:31;10038790.0;;;23.41;69.74414
53089;BME280;38968;47.696;17.540;2022-07-05T07:02:31;10040860.0;;;23.09;70.99805
53089;BME280;38968;47.696;17.540;2022-07-05T07:07:31;10040560.0;;;23.13;70.27734
53089;BME280;38968;47.696;17.540;2022-07-05T07:12:31;10039240.0;;;23.4;69.94238
53089;BME280;38968;47.696;17.540;2022-07-05T07:17:31;10037990.0;;;23.41;70.29688
53089;BME280;38968;47.696;17.540;2022-07-05T07:22:31;10036550.0;;;23.72;69.28418
53089;BME280;38968;47.696;17.540;2022-07-05T07:27:31;10037360.0;;;23.83;69.33691
53089;BME280;38968;47.696;17.540;2022-07-05T07:32:31;10037910.0;;;24.09;67.64551
53089;BME280;38968;47.696;17.540;2022-07-05T07:37:31;10038640.0;;;24.19;67.41406
53089;BME280;38968;47.696;17.540;2022-07-05T07:42:31;10039460.0;;;24.16;66.81836
53089;BME280;38968;47.696;17.540;2022-07-05T07:47:32;10041740.0;;;24.22;67.72266
53089;BME280;38968;47.696;17.540;2022-07-05T07:52:31;10041530.0;;;24.13;68.3584
53089;BME280;38968;47.696;17.540;2022-07-05T07:57:31;10042760.0;;;23.88;69.75781
53089;BME280;38968;47.696;17.540;2022-07-05T08:02:31;10043380.0;;;24.3;68.08984
53089;BME280;38968;47.696;17.540;2022-07-05T08:07:31;10042700.0;;;24.39;67.40723
53089;BME280;38968;47.696;17.540;2022-07-05T08:12:31;10042060.0;;;24.54;65.68262
53089;BME280;38968;47.696;17.540;2022-07-05T08:17:31;10043380.0;;;24.43;67.54199
53089;BME280;38968;47.696;17.540;2022-07-05T08:22:31;10041750.0;;;24.6;67.81641
53089;BME280;38968;47.696;17.540;2022-07-05T08:27:31;10041470.0;;;24.89;66.21777
53089;BME280;38968;47.696;17.540;2022-07-05T08:32:31;10042490.0;;;24.44;67.33105
53089;BME280;38968;47.696;17.540;2022-07-05T08:37:31;10042210.0;;;24.71;67.53711
53089;BME280;38968;47.696;17.540;2022-07-05T08:42:31;10041970.0;;;24.81;66.7832
53089;BME280;38968;47.696;17.540;2022-07-05T08:47:32;10041170.0;;;24.81;66.16895
53089;BME280;38968;47.696;17.540;2022-07-05T08:52:32;10041190.0;;;24.65;67.7168
53089;BME280;38968;47.696;17.540;2022-07-05T08:57:31;10041310.0;;;24.86;67.3125
53089;BME280;38968;47.696;17.540;2022-07-05T09:02:31;10040820.0;;;25.06;66.93945
53089;BME280;38968;47.696;17.540;2022-07-05T09:07:32;10041240.0;;;24.97;66.46484
53089;BME280;38968;47.696;17.540;2022-07-05T09:12:31;10040700.0;;;25.1;66.7793
53089;BME280;38968;47.696;17.540;2022-07-05T09:17:31;10041000.0;;;25.43;65.90625
53089;BME280;38968;47.696;17.540;2022-07-05T09:22:44;10040320.0;;;25.25;64.34277
53089;BME280;38968;47.696;17.540;2022-07-05T09:27:32;10040910.0;;;25.04;66.07422
53089;BME280;38968;47.696;17.540;2022-07-05T09:32:31;10041990.0;;;24.77;67.6416
53089;BME280;38968;47.696;17.540;2022-07-05T09:37:43;10042000.0;;;24.89;66.26465
53089;BME280;38968;47.696;17.540;2022-07-05T09:42:31;10041370.0;;;25.02;65.53906
53089;BME280;38968;47.696;17.540;2022-07-05T09:47:31;10041420.0;;;25.09;65.57324
53089;BME280;38968;47.696;17.540;2022-07-05T09:52:35;10040650.0;;;25.3;66.37207
53089;BME280;38968;47.696;17.540;2022-07-05T09:57:33;10040140.0;;;25.14;65.48633
53089;BME280;38968;47.696;17.540;2022-07-05T10:02:39;10039320.0;;;24.9;66.25586
53089;BME280;38968;47.696;17.540;2022-07-05T10:07:31;10040590.0;;;25.25;65.76172
53089;BME280;38968;47.696;17.540;2022-07-05T10:12:31;10039770.0;;;25.28;65.74219
53089;BME280;38968;47.696;17.540;2022-07-05T10:17:33;10039690.0;;;25.26;64.68652
53089;BME280;38968;47.696;17.540;2022-07-05T10:22:31;10039440.0;;;25.24;63.87988
53089;BME280;38968;47.696;17.540;2022-07-05T10:27:32;10039350.0;;;24.86;66.41309
53089;BME280;38968;47.696;17.540;2022-07-05T10:32:32;10039230.0;;;24.9;66.3252
53089;BME280;38968;47.696;17.540;2022-07-05T10:37:32;10039150.0;;;25.27;64.32227
53089;BME280;38968;47.696;17.540;2022-07-05T10:47:31;10038320.0;;;25.05;63.98242
53089;BME280;38968;47.696;17.540;2022-07-05T10:52:32;10037730.0;;;25.14;64.62305
53089;BME280;38968;47.696;17.540;2022-07-05T10:57:31;10037350.0;;;24.91;65.88867
53089;BME280;38968;47.696;17.540;2022-07-05T11:02:31;10038740.0;;;24.71;66.19141
53089;BME280;38968;47.696;17.540;2022-07-05T11:07:59;10037860.0;;;24.94;66.7334
53089;BME280;38968;47.696;17.540;2022-07-05T11:12:35;10038620.0;;;24.75;66.89355
53089;BME280;38968;47.696;17.540;2022-07-05T11:17:31;10038050.0;;;25.07;66.4209
53089;BME280;38968;47.696;17.540;2022-07-05T11:22:32;10038550.0;;;25.24;64.9668
53089;BME280;38968;47.696;17.540;2022-07-05T11:27:31;10038570.0;;;24.95;65.02051
53089;BME280;38968;47.696;17.540;2022-07-05T11:32:35;10038030.0;;;25.08;64.7793
53089;BME280;38968;47.696;17.540;2022-07-05T11:37:31;10039350.0;;;24.19;68.28516
53089;BME280;38968;47.696;17.540;2022-07-05T11:42:31;10038430.0;;;24.51;67.17773
53089;BME280;38968;47.696;17.540;2022-07-05T11:47:31;10037980.0;;;24.65;66.38281
53089;BME280;38968;47.696;17.540;2022-07-05T11:52:32;10037490.0;;;24.32;67.13574
53089;BME280;38968;47.696;17.540;2022-07-05T11:57:31;10037670.0;;;24.58;65.77051
53089;BME280;38968;47.696;17.540;2022-07-05T12:02:31;10036270.0;;;24.8;66.54688
53089;BME280;38968;47.696;17.540;2022-07-05T12:07:32;10035970.0;;;24.97;65.17871
53089;BME280;38968;47.696;17.540;2022-07-05T12:12:31;10036100.0;;;24.92;64.3418
53089;BME280;38968;47.696;17.540;2022-07-05T12:17:35;10035680.0;;;25;65.44238
53089;BME280;38968;47.696;17.540;2022-07-05T12:22:36;10035460.0;;;25.31;64.5166
53089;BME280;38968;47.696;17.540;2022-07-05T12:27:32;10035700.0;;;25.1;66.52051
53089;BME280;38968;47.696;17.540;2022-07-05T12:32:32;10035020.0;;;25.43;65.91797
53089;BME280;38968;47.696;17.540;2022-07-05T12:37:31;10035140.0;;;25.88;62.67773
53089;BME280;38968;47.696;17.540;2022-07-05T12:42:32;10034960.0;;;26.13;61.14648
53089;BME280;38968;47.696;17.540;2022-07-05T12:47:35;10035100.0;;;25.81;62.4209
53089;BME280;38968;47.696;17.540;2022-07-05T12:52:31;10034710.0;;;25.86;62.5791
53089;BME280;38968;47.696;17.540;2022-07-05T12:57:31;10034520.0;;;25.99;62.72852
53089;BME280;38968;47.696;17.540;2022-07-05T13:02:39;10034100.0;;;25.71;61.2207
53089;BME280;38968;47.696;17.540;2022-07-05T13:07:31;10033240.0;;;25.18;61.77441
53089;BME280;38968;47.696;17.540;2022-07-05T13:12:31;10032560.0;;;25.5;61.60645
53089;BME280;38968;47.696;17.540;2022-07-05T13:17:31;10033110.0;;;25.47;62.19531
53089;BME280;38968;47.696;17.540;2022-07-05T13:22:31;10032210.0;;;24.99;62.84961
53089;BME280;38968;47.696;17.540;2022-07-05T13:27:31;10032780.0;;;25.07;62.71875
53089;BME280;38968;47.696;17.540;2022-07-05T13:32:31;10032870.0;;;24.93;62.7832
53089;BME280;38968;47.696;17.540;2022-07-05T13:37:31;10032530.0;;;24.91;62.21191
53089;BME280;38968;47.696;17.540;2022-07-05T13:42:31;10033650.0;;;24.33;63.51367
53089;BME280;38968;47.696;17.540;2022-07-05T13:47:31;10032740.0;;;24.62;63.01172
53089;BME280;38968;47.696;17.540;2022-07-05T13:52:31;10032960.0;;;24.56;63.75879
53089;BME280;38968;47.696;17.540;2022-07-05T13:57:31;10032370.0;;;24.76;62.85352
53089;BME280;38968;47.696;17.540;2022-07-05T14:02:31;10033440.0;;;24.38;63.04785
53089;BME280;38968;47.696;17.540;2022-07-05T14:07:31;10033210.0;;;24.32;63.09863
53089;BME280;38968;47.696;17.540;2022-07-05T14:12:32;10032670.0;;;24.19;64.1084
53089;BME280;38968;47.696;17.540;2022-07-05T14:17:31;10032870.0;;;24.17;64.97949
53089;BME280;38968;47.696;17.540;2022-07-05T14:22:31;10032810.0;;;24.26;65.55762
53089;BME280;38968;47.696;17.540;2022-07-05T14:27:31;10030950.0;;;24.75;64.88672
53089;BME280;38968;47.696;17.540;2022-07-05T14:32:31;10030480.0;;;25.17;62.09473
53089;BME280;38968;47.696;17.540;2022-07-05T14:37:31;10029710.0;;;25.49;60.97754
53089;BME280;38968;47.696;17.540;2022-07-05T14:42:31;10029000.0;;;25.72;60.77148
53089;BME280;38968;47.696;17.540;2022-07-05T14:47:31;10030010.0;;;25.69;59.33301
53089;BME280;38968;47.696;17.540;2022-07-05T14:52:31;10029360.0;;;25.23;59.94727
53089;BME280;38968;47.696;17.540;2022-07-05T14:57:31;10029130.0;;;25.3;60.54785
53089;BME280;38968;47.696;17.540;2022-07-05T15:02:31;10028500.0;;;25.31;59.21191
53089;BME280;38968;47.696;17.540;2022-07-05T15:07:32;10028760.0;;;25.56;60.03809
53089;BME280;38968;47.696;17.540;2022-07-05T15:12:32;10028550.0;;;25.86;58.05957
53089;BME280;38968;47.696;17.540;2022-07-05T15:17:31;10027910.0;;;25.75;57.57129
53089;BME280;38968;47.696;17.540;2022-07-05T15:22:31;10027510.0;;;25.44;57.99609
53089;BME280;38968;47.696;17.540;2022-07-05T15:27:32;10026520.0;;;25.7;56.90137
53089;BME280;38968;47.696;17.540;2022-07-05T15:32:31;10026740.0;;;25.76;57.28906
53089;BME280;38968;47.696;17.540;2022-07-05T15:37:31;10027740.0;;;25.74;56.64551
53089;BME280;38968;47.696;17.540;2022-07-05T15:42:31;10026760.0;;;25.25;58.11426
53089;BME280;38968;47.696;17.540;2022-07-05T15:47:31;10026730.0;;;25.3;58.24902
53089;BME280;38968;47.696;17.540;2022-07-05T15:52:32;10026820.0;;;25.66;57.97559
53089;BME280;38968;47.696;17.540;2022-07-05T15:57:31;10026610.0;;;26.06;56.55371
53089;BME280;38968;47.696;17.540;2022-07-05T16:02:31;10025590.0;;;25.87;56.79199
53089;BME280;38968;47.696;17.540;2022-07-05T16:07:31;10025570.0;;;26.7;54.40918
53089;BME280;38968;47.696;17.540;2022-07-05T16:12:31;10026110.0;;;26.01;56.70313
53089;BME280;38968;47.696;17.540;2022-07-05T16:17:31;10025450.0;;;25.7;57.50684
53089;BME280;38968;47.696;17.540;2022-07-05T16:22:31;10024530.0;;;26.66;54.91602
53089;BME280;38968;47.696;17.540;2022-07-05T16:27:31;10023710.0;;;26.57;55.53613
53089;BME280;38968;47.696;17.540;2022-07-05T16:32:31;10023480.0;;;26.4;55.45508
53089;BME280;38968;47.696;17.540;2022-07-05T16:37:31;10023330.0;;;27.59;52.53516
53089;BME280;38968;47.696;17.540;2022-07-05T16:42:31;10022740.0;;;28.07;50.43945
53089;BME280;38968;47.696;17.540;2022-07-05T16:47:31;10024720.0;;;26.87;53.40625
53089;BME280;38968;47.696;17.540;2022-07-05T16:52:31;10024560.0;;;28.57;48.99707
53089;BME280;38968;47.696;17.540;2022-07-05T16:57:31;10026130.0;;;28.52;48.76563
53089;BME280;38968;47.696;17.540;2022-07-05T17:02:31;10027200.0;;;27.89;49.89355
53089;BME280;38968;47.696;17.540;2022-07-05T17:07:31;10027720.0;;;27.26;51.6377
53089;BME280;38968;47.696;17.540;2022-07-05T17:12:31;10030050.0;;;26.23;55.1377
53089;BME280;38968;47.696;17.540;2022-07-05T17:17:31;10030790.0;;;25.84;55.73145
53089;BME280;38968;47.696;17.540;2022-07-05T17:22:31;10030670.0;;;25.76;56.5166
53089;BME280;38968;47.696;17.540;2022-07-05T17:27:31;10030900.0;;;25.33;57.75488
53089;BME280;38968;47.696;17.540;2022-07-05T17:32:31;10032340.0;;;24.93;58.95996
53089;BME280;38968;47.696;17.540;2022-07-05T17:37:31;10033280.0;;;24.61;60.05371
53089;BME280;38968;47.696;17.540;2022-07-05T17:42:31;10032760.0;;;24.59;60.11035
53089;BME280;38968;47.696;17.540;2022-07-05T17:47:31;10032390.0;;;24.47;60.17773
53089;BME280;38968;47.696;17.540;2022-07-05T17:52:31;10033130.0;;;24.44;60.44434
53089;BME280;38968;47.696;17.540;2022-07-05T17:57:31;10033960.0;;;24.39;60.76953
53089;BME280;38968;47.696;17.540;2022-07-05T18:02:31;10032670.0;;;24.06;61.54102
53089;BME280;38968;47.696;17.540;2022-07-05T18:07:31;10033420.0;;;23.87;62.1875
53089;BME280;38968;47.696;17.540;2022-07-05T18:12:31;10034370.0;;;23.78;62.15137
53089;BME280;38968;47.696;17.540;2022-07-05T18:17:31;10033540.0;;;23.83;62.06348
53089;BME280;38968;47.696;17.540;2022-07-05T18:22:31;10032680.0;;;23.78;62.53906
53089;BME280;38968;47.696;17.540;2022-07-05T18:27:31;10032650.0;;;23.96;61.45508
53089;BME280;38968;47.696;17.540;2022-07-05T18:32:31;10033620.0;;;23.85;62.23047
53089;BME280;38968;47.696;17.540;2022-07-05T18:37:31;10034090.0;;;24.07;61.58789
53089;BME280;38968;47.696;17.540;2022-07-05T18:42:31;10034740.0;;;23.76;62.19434
53089;BME280;38968;47.696;17.540;2022-07-05T18:47:31;10035350.0;;;23.78;62.2207
53089;BME280;38968;47.696;17.540;2022-07-05T18:52:31;10036510.0;;;23.64;62.67285
53089;BME280;38968;47.696;17.540;2022-07-05T18:57:31;10036440.0;;;23.6;62.98828
53089;BME280;38968;47.696;17.540;2022-07-05T19:02:31;10037350.0;;;23.58;62.9248
53089;BME280;38968;47.696;17.540;2022-07-05T19:07:31;10036910.0;;;23.57;62.86523
53089;BME280;38968;47.696;17.540;2022-07-05T19:12:31;10036510.0;;;23.5;62.54688
53089;BME280;38968;47.696;17.540;2022-07-05T19:17:31;10036760.0;;;23.1;62.88086
53089;BME280;38968;47.696;17.540;2022-07-05T19:22:31;10037320.0;;;22.91;62.76074
53089;BME280;38968;47.696;17.540;2022-07-05T19:27:31;10038180.0;;;22.96;62.06152
53089;BME280;38968;47.696;17.540;2022-07-05T19:32:31;10038320.0;;;22.73;62.41797
53089;BME280;38968;47.696;17.540;2022-07-05T19:37:31;10038140.0;;;22.59;62.62305
53089;BME280;38968;47.696;17.540;2022-07-05T19:42:31;10037330.0;;;22.75;62.12598
53089;BME280;38968;47.696;17.540;2022-07-05T19:47:31;10037530.0;;;22.56;62.8291
53089;BME280;38968;47.696;17.540;2022-07-05T19:52:31;10036920.0;;;22.25;63.96094
53089;BME280;38968;47.696;17.540;2022-07-05T19:57:31;10036830.0;;;22.39;63.3457
53089;BME280;38968;47.696;17.540;2022-07-05T20:02:31;10037430.0;;;22.28;63.77832
53089;BME280;38968;47.696;17.540;2022-07-05T20:07:31;10036800.0;;;22.29;63.75586
53089;BME280;38968;47.696;17.540;2022-07-05T20:12:31;10037830.0;;;22.05;64.71973
53089;BME280;38968;47.696;17.540;2022-07-05T20:17:31;10036990.0;;;21.96;65.3877
53089;BME280;38968;47.696;17.540;2022-07-05T20:22:31;10035950.0;;;22.23;64.35645
53089;BME280;38968;47.696;17.540;2022-07-05T20:27:31;10035940.0;;;21.94;65.05762
53089;BME280;38968;47.696;17.540;2022-07-05T20:32:31;10036440.0;;;21.99;64.57031
53089;BME280;38968;47.696;17.540;2022-07-05T20:37:31;10036960.0;;;21.86;64.71582
53089;BME280;38968;47.696;17.540;2022-07-05T20:42:31;10037120.0;;;21.43;65.87305
53089;BME280;38968;47.696;17.540;2022-07-05T20:47:32;10037120.0;;;21.43;65.37988
53089;BME280;38968;47.696;17.540;2022-07-05T20:52:31;10037040.0;;;21.72;64.50879
53089;BME280;38968;47.696;17.540;2022-07-05T20:57:32;10037690.0;;;21.82;63.62988
53089;BME280;38968;47.696;17.540;2022-07-05T21:02:31;10037430.0;;;21.97;63.11035
53089;BME280;38968;47.696;17.540;2022-07-05T21:07:31;10036400.0;;;21.76;63.91504
53089;BME280;38968;47.696;17.540;2022-07-05T21:12:31;10036990.0;;;21.66;64.16992
53089;BME280;38968;47.696;17.540;2022-07-05T21:17:31;10037340.0;;;21.66;64.28809
53089;BME280;38968;47.696;17.540;2022-07-05T21:22:31;10038080.0;;;21.61;64.64453
53089;BME280;38968;47.696;17.540;2022-07-05T21:27:31;10036740.0;;;21.78;64.42383
53089;BME280;38968;47.696;17.540;2022-07-05T21:32:31;10037040.0;;;21.56;65.01367
53089;BME280;38968;47.696;17.540;2022-07-05T21:37:31;10037660.0;;;21.73;64.31055
53089;BME280;38968;47.696;17.540;2022-07-05T21:42:31;10038300.0;;;21.53;64.77344
53089;BME280;38968;47.696;17.540;2022-07-05T21:47:31;10039520.0;;;21.73;63.55859
53089;BME280;38968;47.696;17.540;2022-07-05T21:52:31;10039770.0;;;21.76;63.22168
53089;BME280;38968;47.696;17.540;2022-07-05T21:57:32;10040040.0;;;21.6;63.56348
53089;BME280;38968;47.696;17.540;2022-07-05T22:02:31;10041750.0;;;21.39;64.30664
53089;BME280;38968;47.696;17.540;2022-07-05T22:07:31;10040510.0;;;21.38;63.90723
53089;BME280;38968;47.696;17.540;2022-07-05T22:12:31;10041520.0;;;21.32;63.53613
53089;BME280;38968;47.696;17.540;2022-07-05T22:17:31;10040000.0;;;21.34;63.19922
53089;BME280;38968;47.696;17.540;2022-07-05T22:22:31;10041460.0;;;21.26;63.16309
53089;BME280;38968;47.696;17.540;2022-07-05T22:27:31;10040670.0;;;21.08;63.7959
53089;BME280;38968;47.696;17.540;2022-07-05T22:32:31;10040520.0;;;21.03;63.15527
53089;BME280;38968;47.696;17.540;2022-07-05T22:37:41;10041540.0;;;21.11;62.50781
53089;BME280;38968;47.696;17.540;2022-07-05T22:42:31;10041780.0;;;21.15;61.96289
53089;BME280;38968;47.696;17.540;2022-07-05T22:47:31;10040530.0;;;21.19;61.54688
53089;BME280;38968;47.696;17.540;2022-07-05T22:52:31;10040420.0;;;21.05;61.89258
53089;BME280;38968;47.696;17.540;2022-07-05T22:57:32;10040560.0;;;20.95;62.18066
53089;BME280;38968;47.696;17.540;2022-07-05T23:02:31;10042100.0;;;20.89;62.09082
53089;BME280;38968;47.696;17.540;2022-07-05T23:07:31;10041660.0;;;20.88;62.47656
53089;BME280;38968;47.696;17.540;2022-07-05T23:12:31;10041370.0;;;20.59;62.81152
53089;BME280;38968;47.696;17.540;2022-07-05T23:17:31;10040850.0;;;20.73;61.71777
53089;BME280;38968;47.696;17.540;2022-07-05T23:22:31;10041570.0;;;20.71;61.84277
53089;BME280;38968;47.696;17.540;2022-07-05T23:27:32;10041350.0;;;20.43;62.05078
53089;BME280;38968;47.696;17.540;2022-07-05T23:32:32;10042440.0;;;20.56;61.68262
53089;BME280;38968;47.696;17.540;2022-07-05T23:37:31;10041650.0;;;20.73;60.52246
53089;BME280;38968;47.696;17.540;2022-07-05T23:42:31;10043030.0;;;20.63;60.44922
53089;BME280;38968;47.696;17.540;2022-07-05T23:47:31;10044350.0;;;20.64;60.24023
53089;BME280;38968;47.696;17.540;2022-07-05T23:52:32;10044030.0;;;20.59;60.08105
53089;BME280;38968;47.696;17.540;2022-07-05T23:57:32;10044130.0;;;20.57;60.21777
